createdAt,value
2018-06-17T00:00:24.062Z,14.80
2018-06-17T00:02:52.461Z,12.47
2018-06-17T00:05:20.835Z,13.90
2018-06-17T00:07:49.241Z,14.03
2018-06-17T00:10:17.621Z,15.70
2018-06-17T00:12:46.027Z,13.77
2018-06-17T00:15:14.433Z,15.47
2018-06-17T00:17:42.834Z,14.47
2018-06-17T00:20:11.207Z,14.20
2018-06-17T00:22:39.595Z,14.67
2018-06-17T00:25:08.007Z,13.90
2018-06-17T00:27:36.391Z,15.17
2018-06-17T00:30:04.938Z,14.47
2018-06-17T00:32:33.451Z,12.10
2018-06-17T00:35:01.857Z,14.93
2018-06-17T00:37:30.232Z,13.53
2018-06-17T00:39:58.658Z,14.20
2018-06-17T00:42:27.040Z,14.63
2018-06-17T00:44:55.486Z,15.00
2018-06-17T00:47:23.858Z,13.83
2018-06-17T00:49:52.269Z,13.77
2018-06-17T00:52:20.650Z,14.40
2018-06-17T00:54:49.097Z,14.40
2018-06-17T00:57:28.911Z,13.67
2018-06-17T00:59:57.310Z,15.40
2018-06-17T01:02:25.688Z,15.20
2018-06-17T01:04:54.087Z,14.57
2018-06-17T01:07:22.467Z,14.53
2018-06-17T01:09:50.903Z,14.70
2018-06-17T01:12:19.282Z,14.37
2018-06-17T01:14:47.715Z,15.20
2018-06-17T01:17:16.099Z,14.70
2018-06-17T01:19:44.509Z,15.50
2018-06-17T01:22:12.890Z,14.67
2018-06-17T01:24:41.311Z,15.23
2018-06-17T01:27:09.706Z,15.90
2018-06-17T01:29:38.114Z,16.60
2018-06-17T01:32:06.327Z,15.57
2018-06-17T01:34:34.830Z,15.43
2018-06-17T01:37:03.238Z,16.57
2018-06-17T01:39:32.302Z,17.10
2018-06-17T01:42:00.669Z,17.10
2018-06-17T01:44:29.075Z,16.00
2018-06-17T01:46:57.630Z,17.33
2018-06-17T01:49:26.252Z,16.60
2018-06-17T01:51:54.640Z,16.17
2018-06-17T01:54:23.019Z,17.17
2018-06-17T01:56:51.430Z,17.83
2018-06-17T01:59:19.815Z,17.20
2018-06-17T02:01:48.220Z,16.63
2018-06-17T02:04:21.947Z,17.97
2018-06-17T02:06:55.687Z,17.13
2018-06-17T02:09:29.480Z,15.80
2018-06-17T02:12:08.158Z,16.93
2018-06-17T02:14:41.982Z,17.93
2018-06-17T02:17:10.382Z,17.40
2018-06-17T02:19:38.759Z,17.07
2018-06-17T02:22:07.264Z,18.87
2018-06-17T02:24:35.882Z,16.73
2018-06-17T02:27:04.291Z,17.33
2018-06-17T02:29:32.838Z,17.83
2018-06-17T02:32:01.247Z,18.03
2018-06-17T02:34:29.630Z,17.90
2018-06-17T02:36:58.038Z,19.20
2018-06-17T02:39:26.443Z,16.00
2018-06-17T02:41:54.864Z,19.63
2018-06-17T02:44:23.243Z,18.50
2018-06-17T02:46:57.107Z,17.90
2018-06-17T02:49:30.795Z,18.93
2018-06-17T02:52:04.516Z,17.07
2018-06-17T02:54:38.179Z,18.90
2018-06-17T02:57:06.619Z,18.43
2018-06-17T02:59:35.008Z,17.87
2018-06-17T03:02:03.419Z,18.37
2018-06-17T03:04:31.809Z,18.60
2018-06-17T03:07:00.212Z,18.67
2018-06-17T03:09:28.612Z,18.53
2018-06-17T03:11:57.232Z,19.40
2018-06-17T03:14:25.782Z,17.83
2018-06-17T03:16:54.291Z,17.73
2018-06-17T03:19:23.052Z,13.80
2018-06-17T03:21:51.495Z,17.53
2018-06-17T03:24:25.192Z,16.47
2018-06-17T03:26:58.924Z,18.17
2018-06-17T03:29:32.725Z,18.47
2018-06-17T03:32:06.444Z,17.87
2018-06-17T03:34:34.831Z,17.50
2018-06-17T03:37:03.219Z,15.23
2018-06-17T03:39:31.614Z,19.73
2018-06-17T03:42:00.004Z,18.57
2018-06-17T03:44:28.427Z,20.30
2018-06-17T03:46:56.802Z,17.90
2018-06-17T03:49:25.209Z,18.03
2018-06-17T03:51:53.595Z,17.90
2018-06-17T03:54:22.004Z,18.30
2018-06-17T03:56:50.398Z,18.10
2018-06-17T03:59:18.801Z,15.60
2018-06-17T04:01:47.181Z,17.20
2018-06-17T04:04:15.582Z,16.57
2018-06-17T04:06:43.975Z,16.73
2018-06-17T04:09:12.374Z,16.00
2018-06-17T04:11:40.760Z,15.37
2018-06-17T04:14:09.200Z,15.40
2018-06-17T04:16:37.577Z,15.70
2018-06-17T04:19:06.050Z,15.17
2018-06-17T04:21:34.424Z,14.80
2018-06-17T04:24:02.835Z,14.03
2018-06-17T04:26:31.227Z,15.17
2018-06-17T04:28:59.631Z,14.47
2018-06-17T04:31:28.078Z,13.90
2018-06-17T04:33:56.492Z,14.37
2018-06-17T04:36:24.880Z,14.47
2018-06-17T04:38:53.295Z,14.40
2018-06-17T04:41:21.678Z,13.73
2018-06-17T04:43:50.092Z,13.77
2018-06-17T04:46:18.481Z,14.43
2018-06-17T04:48:46.882Z,15.63
2018-06-17T04:51:15.268Z,15.10
2018-06-17T04:53:43.695Z,15.03
2018-06-17T04:56:12.087Z,15.20
2018-06-17T04:58:40.486Z,15.67
2018-06-17T05:01:08.895Z,14.43
2018-06-17T05:03:37.280Z,14.50
2018-06-17T05:06:05.918Z,14.63
2018-06-17T05:08:34.294Z,15.53
2018-06-17T05:11:02.703Z,15.23
2018-06-17T05:13:31.109Z,15.90
2018-06-17T05:15:59.515Z,16.00
2018-06-17T05:18:27.881Z,16.27
2018-06-17T05:20:56.399Z,15.30
2018-06-17T05:23:24.832Z,14.80
2018-06-17T05:25:53.230Z,15.47
2018-06-17T05:28:21.602Z,14.23
2018-06-17T05:30:50.017Z,16.00
2018-06-17T05:33:18.403Z,17.37
2018-06-17T05:35:46.824Z,16.43
2018-06-17T05:38:15.246Z,16.40
2018-06-17T05:40:43.654Z,16.40
2018-06-17T05:43:12.036Z,17.37
2018-06-17T05:45:40.438Z,16.67
2018-06-17T05:48:08.823Z,15.63
2018-06-17T05:50:37.224Z,16.83
2018-06-17T05:53:05.895Z,16.93
2018-06-17T05:55:34.374Z,18.20
2018-06-17T05:58:02.737Z,17.70
2018-06-17T06:00:31.150Z,20.63
2018-06-17T06:02:59.556Z,16.77
2018-06-17T06:05:27.996Z,18.20
2018-06-17T06:07:56.387Z,16.97
2018-06-17T06:10:24.832Z,17.30
2018-06-17T06:12:53.226Z,16.10
2018-06-17T06:15:21.682Z,18.27
2018-06-17T06:17:50.071Z,17.00
2018-06-17T06:20:18.468Z,18.10
2018-06-17T06:22:46.879Z,18.60
2018-06-17T06:25:15.301Z,19.17
2018-06-17T06:27:43.709Z,18.07
2018-06-17T06:30:12.087Z,18.80
2018-06-17T06:32:40.498Z,15.80
2018-06-17T06:35:08.866Z,20.77
2018-06-17T06:37:37.268Z,19.17
2018-06-17T06:40:05.642Z,17.63
2018-06-17T06:42:34.055Z,22.50
2018-06-17T06:45:02.504Z,16.77
2018-06-17T06:47:30.901Z,19.40
2018-06-17T06:49:59.343Z,18.60
2018-06-17T06:52:27.717Z,17.53
2018-06-17T06:54:56.106Z,19.40
2018-06-17T06:57:24.569Z,14.30
2018-06-17T06:59:52.979Z,16.40
2018-06-17T07:02:32.728Z,14.50
2018-06-17T07:05:12.434Z,13.47
2018-06-17T07:07:52.040Z,15.23
2018-06-17T07:10:24.188Z,17.20
2018-06-17T07:12:52.634Z,15.20
2018-06-17T07:15:32.816Z,15.77
2018-06-17T07:18:12.607Z,14.73
2018-06-17T07:20:41.247Z,14.20
2018-06-17T07:23:09.851Z,14.37
2018-06-17T07:26:54.705Z,14.00
2018-06-17T07:29:37.941Z,14.93
2018-06-17T07:32:06.331Z,12.53
2018-06-17T07:34:34.919Z,13.60
2018-06-17T07:37:03.629Z,11.97
2018-06-17T07:41:41.922Z,10.70
2018-06-17T07:44:10.326Z,11.37
2018-06-17T07:46:38.710Z,10.47
2018-06-17T07:49:28.733Z,10.37
2018-06-17T07:52:11.645Z,10.43
2018-06-17T07:54:41.027Z,13.23
2018-06-17T07:57:10.369Z,13.90
2018-06-17T07:59:38.763Z,12.77
2018-06-17T08:02:07.865Z,13.30
2018-06-17T08:04:36.427Z,14.50
2018-06-17T08:07:04.851Z,14.73
2018-06-17T08:09:33.246Z,13.70
2018-06-17T08:12:01.908Z,13.27
2018-06-17T08:14:30.334Z,13.07
2018-06-17T08:16:58.996Z,13.40
2018-06-17T08:19:28.550Z,13.27
2018-06-17T08:21:57.900Z,11.70
2018-06-17T08:24:26.647Z,11.47
2018-06-17T08:26:55.096Z,10.33
2018-06-17T08:29:23.737Z,10.13
2018-06-17T08:31:52.165Z,9.57
2018-06-17T08:34:20.547Z,8.10
2018-06-17T08:36:48.960Z,9.30
2018-06-17T08:39:18.556Z,8.40
2018-06-17T08:41:47.053Z,7.50
2018-06-17T08:44:16.233Z,9.80
2018-06-17T08:46:45.493Z,7.70
2018-06-17T08:49:14.405Z,8.30
2018-06-17T08:51:42.930Z,8.87
2018-06-17T08:54:11.369Z,8.73
2018-06-17T08:56:39.823Z,7.63
2018-06-17T08:59:08.207Z,7.87
2018-06-17T09:01:36.948Z,7.83
2018-06-17T09:04:05.336Z,7.60
2018-06-17T09:06:33.733Z,8.77
2018-06-17T09:09:02.183Z,8.60
2018-06-17T09:11:30.591Z,7.63
2018-06-17T09:13:58.995Z,7.67
2018-06-17T09:16:27.424Z,7.73
2018-06-17T09:18:55.853Z,7.60
2018-06-17T09:21:24.231Z,5.83
2018-06-17T09:23:52.635Z,7.03
2018-06-17T09:26:21.072Z,6.27
2018-06-17T09:28:49.491Z,6.57
2018-06-17T09:31:17.861Z,7.07
2018-06-17T09:33:46.268Z,7.37
2018-06-17T09:36:14.641Z,7.40
2018-06-17T09:38:43.042Z,6.83
2018-06-17T09:41:11.501Z,8.57
2018-06-17T09:43:39.905Z,7.73
2018-06-17T09:46:08.289Z,6.60
2018-06-17T09:48:36.683Z,6.93
2018-06-17T09:51:05.061Z,7.73
2018-06-17T09:53:33.467Z,7.50
2018-06-17T09:56:01.840Z,6.13
2018-06-17T09:58:30.263Z,6.87
2018-06-17T10:00:58.634Z,7.00
2018-06-17T10:03:27.031Z,7.23
2018-06-17T10:05:55.403Z,6.47
2018-06-17T10:08:23.802Z,8.03
2018-06-17T10:10:56.254Z,6.80
2018-06-17T10:13:25.995Z,7.00
2018-06-17T10:15:54.630Z,6.97
2018-06-17T10:18:23.769Z,7.53
2018-06-17T10:20:52.187Z,7.20
2018-06-17T10:23:20.847Z,6.13
2018-06-17T10:25:49.231Z,6.70
2018-06-17T10:28:18.119Z,6.50
2018-06-17T10:30:47.800Z,6.27
2018-06-17T10:33:16.211Z,8.03
2018-06-17T10:35:45.379Z,5.90
2018-06-17T10:38:13.815Z,6.10
2018-06-17T10:40:42.219Z,7.23
2018-06-17T10:43:12.894Z,5.20
2018-06-17T10:45:41.655Z,5.83
2018-06-17T10:48:10.497Z,6.50
2018-06-17T10:50:38.869Z,6.90
2018-06-17T10:53:07.728Z,6.17
2018-06-17T10:55:36.179Z,7.10
2018-06-17T10:58:04.559Z,6.80
2018-06-17T11:00:32.958Z,7.27
2018-06-17T11:03:01.340Z,5.40
2018-06-17T11:05:29.785Z,7.30
2018-06-17T11:07:58.146Z,6.80
2018-06-17T11:10:26.558Z,7.30
2018-06-17T11:12:54.939Z,6.40
2018-06-17T11:15:23.379Z,6.47
2018-06-17T11:17:51.758Z,7.50
2018-06-17T11:20:20.167Z,7.57
2018-06-17T11:22:48.542Z,6.23
2018-06-17T11:25:16.951Z,6.60
2018-06-17T11:27:45.339Z,7.27
2018-06-17T11:30:13.747Z,7.00
2018-06-17T11:32:42.151Z,6.80
2018-06-17T11:35:10.551Z,6.40
2018-06-17T11:37:38.934Z,6.40
2018-06-17T11:40:07.388Z,6.53
2018-06-17T11:42:35.774Z,6.93
2018-06-17T11:45:04.185Z,7.50
2018-06-17T11:47:32.567Z,6.50
2018-06-17T11:50:00.978Z,6.20
2018-06-17T11:52:29.354Z,6.80
2018-06-17T11:54:57.766Z,5.60
2018-06-17T11:57:26.151Z,6.63
2018-06-17T11:59:54.552Z,5.47
2018-06-17T12:02:22.953Z,6.30
2018-06-17T12:04:51.357Z,6.43
2018-06-17T12:07:19.770Z,5.50
2018-06-17T12:09:48.196Z,6.10
2018-06-17T12:12:16.576Z,6.40
2018-06-17T12:14:44.995Z,5.40
2018-06-17T12:17:13.467Z,6.53
2018-06-17T12:19:41.847Z,6.70
2018-06-17T12:22:10.253Z,7.00
2018-06-17T12:24:38.629Z,7.37
2018-06-17T12:27:07.040Z,6.50
2018-06-17T12:29:35.422Z,7.00
2018-06-17T12:32:03.827Z,6.40
2018-06-17T12:34:32.220Z,7.03
2018-06-17T12:37:00.636Z,6.83
2018-06-17T12:39:29.007Z,6.63
2018-06-17T12:41:57.407Z,6.80
2018-06-17T12:44:25.787Z,5.83
2018-06-17T12:46:54.212Z,6.57
2018-06-17T12:49:22.611Z,6.47
2018-06-17T12:51:51.026Z,6.07
2018-06-17T12:54:19.400Z,5.97
2018-06-17T12:56:47.798Z,5.90
2018-06-17T12:59:16.191Z,6.30
2018-06-17T13:01:44.590Z,6.30
2018-06-17T13:04:12.958Z,6.03
2018-06-17T13:06:41.363Z,6.67
2018-06-17T13:09:11.127Z,6.87
2018-06-17T13:11:39.527Z,7.33
2018-06-17T13:14:08.487Z,6.70
2018-06-17T13:16:36.883Z,6.20
2018-06-17T13:19:05.607Z,6.27
2018-06-17T13:21:34.007Z,5.80
2018-06-17T13:24:02.393Z,5.90
2018-06-17T13:26:30.855Z,5.20
2018-06-17T13:28:59.243Z,5.67
2018-06-17T13:31:27.606Z,5.90
2018-06-17T13:33:56.003Z,5.07
2018-06-17T13:36:24.375Z,5.00
2018-06-17T13:38:52.770Z,4.80
2018-06-17T13:41:21.146Z,5.20
2018-06-17T13:43:49.543Z,4.60
2018-06-17T13:46:17.948Z,4.83
2018-06-17T13:48:46.363Z,4.20
2018-06-17T13:51:14.747Z,4.37
2018-06-17T13:53:43.155Z,5.13
2018-06-17T13:56:11.531Z,4.53
2018-06-17T13:58:39.946Z,4.90
2018-06-17T14:01:08.320Z,4.97
2018-06-17T14:03:36.713Z,4.17
2018-06-17T14:06:05.094Z,5.40
2018-06-17T14:08:33.494Z,4.20
2018-06-17T14:11:01.926Z,4.60
2018-06-17T14:13:30.376Z,3.60
2018-06-17T14:15:58.748Z,3.00
2018-06-17T14:18:27.205Z,3.43
2018-06-17T14:20:55.588Z,2.80
2018-06-17T14:23:23.987Z,3.47
2018-06-17T14:25:52.367Z,4.00
2018-06-17T14:28:20.770Z,2.80
2018-06-17T14:30:49.147Z,2.50
2018-06-17T14:33:17.555Z,2.50
2018-06-17T14:35:45.924Z,3.60
2018-06-17T14:38:14.318Z,2.70
2018-06-17T14:40:48.175Z,2.20
2018-06-17T14:43:21.899Z,2.17
2018-06-17T14:45:55.705Z,2.00
2018-06-17T14:48:29.403Z,1.83
2018-06-17T14:51:03.106Z,1.90
2018-06-17T14:53:31.526Z,1.57
2018-06-17T14:55:59.899Z,2.20
2018-06-17T14:58:28.289Z,2.00
2018-06-17T15:00:56.662Z,2.03
2018-06-17T15:03:25.088Z,2.30
2018-06-17T15:05:53.838Z,2.07
2018-06-17T15:08:22.265Z,2.50
2018-06-17T15:10:50.630Z,2.83
2018-06-17T15:13:19.067Z,5.13
2018-06-17T15:15:47.533Z,5.20
2018-06-17T15:18:15.904Z,5.20
2018-06-17T15:20:44.343Z,2.70
2018-06-17T15:23:12.739Z,2.30
2018-06-17T15:25:41.137Z,2.50
2018-06-17T15:28:09.520Z,2.03
2018-06-17T15:30:37.963Z,2.47
2018-06-17T15:33:11.832Z,2.10
2018-06-17T15:35:45.694Z,1.70
2018-06-17T15:38:19.534Z,2.67
2018-06-17T15:40:53.232Z,1.80
2018-06-17T15:43:21.643Z,2.17
2018-06-17T15:45:50.046Z,2.00
2018-06-17T15:48:18.433Z,2.20
2018-06-17T15:50:46.911Z,2.07
2018-06-17T15:53:15.270Z,1.73
2018-06-17T15:55:43.674Z,1.80
2018-06-17T15:58:12.054Z,2.10
2018-06-17T16:00:40.472Z,2.33
2018-06-17T16:03:08.849Z,2.87
2018-06-17T16:05:37.251Z,1.87
2018-06-17T16:08:05.671Z,2.10
2018-06-17T16:10:34.076Z,1.87
2018-06-17T16:13:07.787Z,2.10
2018-06-17T16:15:41.515Z,2.07
2018-06-17T16:18:15.423Z,2.00
2018-06-17T16:20:49.144Z,1.57
2018-06-17T16:23:17.581Z,1.80
2018-06-17T16:25:45.959Z,1.97
2018-06-17T16:28:14.609Z,1.50
2018-06-17T16:30:43.070Z,1.70
2018-06-17T16:33:11.479Z,1.80
2018-06-17T16:35:39.919Z,1.97
2018-06-17T16:38:08.318Z,1.73
2018-06-17T16:40:36.694Z,1.90
2018-06-17T16:43:05.143Z,1.80
2018-06-17T16:45:33.510Z,2.00
2018-06-17T16:48:01.919Z,2.17
2018-06-17T16:50:30.297Z,1.70
2018-06-17T16:53:04.075Z,1.80
2018-06-17T16:55:37.915Z,2.07
2018-06-17T16:58:11.608Z,2.70
2018-06-17T17:00:39.988Z,1.40
2018-06-17T17:03:08.395Z,2.50
2018-06-17T17:05:36.776Z,1.63
2018-06-17T17:08:05.191Z,1.57
2018-06-17T17:10:34.025Z,1.70
2018-06-17T17:13:02.471Z,1.80
2018-06-17T17:15:30.852Z,2.37
2018-06-17T17:17:59.258Z,2.30
2018-06-17T17:20:27.639Z,1.90
2018-06-17T17:22:56.039Z,1.90
2018-06-17T17:25:24.423Z,1.90
2018-06-17T17:27:52.827Z,2.00
2018-06-17T17:30:21.213Z,2.20
2018-06-17T17:32:55.055Z,1.83
2018-06-17T17:35:28.855Z,1.80
2018-06-17T17:38:02.547Z,2.03
2018-06-17T17:40:36.230Z,2.57
2018-06-17T17:43:04.645Z,1.77
2018-06-17T17:45:35.011Z,2.10
2018-06-17T17:48:03.615Z,2.00
2018-06-17T17:50:31.995Z,2.60
2018-06-17T17:53:00.414Z,1.90
2018-06-17T17:55:28.777Z,1.93
2018-06-17T17:57:57.202Z,2.00
2018-06-17T18:00:25.584Z,2.83
2018-06-17T18:02:54.038Z,2.23
2018-06-17T18:05:22.396Z,2.53
2018-06-17T18:07:50.770Z,2.83
2018-06-17T18:10:19.158Z,2.13
2018-06-17T18:12:47.531Z,2.40
2018-06-17T18:15:15.955Z,2.70
2018-06-17T18:17:44.318Z,2.63
2018-06-17T18:20:12.715Z,2.90
2018-06-17T18:22:41.091Z,2.53
2018-06-17T18:25:14.761Z,3.27
2018-06-17T18:27:48.776Z,2.77
2018-06-17T18:30:22.472Z,2.70
2018-06-17T18:32:56.157Z,3.37
2018-06-17T18:35:30.009Z,3.50
2018-06-17T18:37:58.391Z,3.50
2018-06-17T18:40:26.800Z,3.40
2018-06-17T18:42:55.180Z,3.40
2018-06-17T18:45:23.579Z,4.03
2018-06-17T18:47:52.072Z,4.97
2018-06-17T18:50:20.462Z,5.07
2018-06-17T18:52:48.845Z,5.60
2018-06-17T18:55:17.299Z,4.40
2018-06-17T18:57:45.659Z,4.60
2018-06-17T19:00:14.067Z,4.80
2018-06-17T19:02:42.482Z,6.00
2018-06-17T19:05:10.882Z,5.50
2018-06-17T19:07:39.547Z,5.97
2018-06-17T19:10:13.375Z,5.07
2018-06-17T19:12:47.114Z,6.50
2018-06-17T19:15:20.887Z,6.30
2018-06-17T19:17:54.634Z,6.10
2018-06-17T19:20:23.042Z,6.40
2018-06-17T19:22:51.422Z,6.07
2018-06-17T19:25:19.831Z,5.77
2018-06-17T19:27:48.207Z,5.70
2018-06-17T19:30:16.611Z,6.90
2018-06-17T19:32:44.996Z,5.10
2018-06-17T19:35:13.394Z,5.90
2018-06-17T19:37:41.770Z,5.27
2018-06-17T19:40:10.171Z,6.00
2018-06-17T19:42:38.583Z,5.17
2018-06-17T19:45:06.966Z,5.60
2018-06-17T19:47:35.367Z,5.90
2018-06-17T19:50:09.117Z,5.67
2018-06-17T19:52:43.775Z,5.37
2018-06-17T19:55:17.516Z,6.13
2018-06-17T19:57:51.163Z,5.77
2018-06-17T20:00:25.262Z,5.50
2018-06-17T20:02:53.663Z,5.07
2018-06-17T20:05:22.047Z,5.90
2018-06-17T20:07:50.447Z,5.30
2018-06-17T20:10:18.819Z,5.80
2018-06-17T20:12:47.234Z,5.37
2018-06-17T20:15:15.633Z,6.03
2018-06-17T20:17:44.067Z,5.57
2018-06-17T20:20:12.446Z,5.67
2018-06-17T20:22:40.995Z,6.47
2018-06-17T20:25:09.338Z,5.30
2018-06-17T20:27:37.756Z,5.40
2018-06-17T20:30:06.950Z,5.30
2018-06-17T20:32:40.850Z,5.70
2018-06-17T20:35:14.670Z,5.10
2018-06-17T20:37:48.372Z,5.50
2018-06-17T20:40:22.186Z,6.50
2018-06-17T20:42:55.979Z,6.20
2018-06-17T20:45:24.355Z,5.10
2018-06-17T20:47:53.303Z,5.27
2018-06-17T20:50:22.043Z,5.70
2018-06-17T20:52:50.455Z,4.80
2018-06-17T20:55:19.114Z,5.03
2018-06-17T20:57:47.825Z,4.40
2018-06-17T21:00:16.195Z,5.40
2018-06-17T21:02:44.598Z,6.47
2018-06-17T21:05:13.178Z,6.03
2018-06-17T21:07:41.595Z,6.40
2018-06-17T21:10:09.972Z,6.33
2018-06-17T21:12:38.375Z,6.20
2018-06-17T21:15:12.168Z,5.27
2018-06-17T21:17:40.558Z,5.90
2018-06-17T21:20:14.219Z,6.70
2018-06-17T21:22:47.943Z,5.13
2018-06-17T21:25:21.587Z,5.33
2018-06-17T21:27:52.360Z,5.90
2018-06-17T21:30:21.003Z,5.60
2018-06-17T21:32:49.461Z,6.40
2018-06-17T21:35:18.191Z,5.90
2018-06-17T21:37:46.642Z,5.13
2018-06-17T21:40:15.057Z,6.37
2018-06-17T21:42:43.710Z,4.97
2018-06-17T21:45:12.523Z,4.90
2018-06-17T21:47:41.803Z,6.70
2018-06-17T21:50:10.209Z,6.10
2018-06-17T21:52:40.339Z,6.53
2018-06-17T21:55:08.752Z,5.20
2018-06-17T21:57:37.133Z,5.60
2018-06-17T22:00:07.153Z,6.20
2018-06-17T22:02:39.693Z,4.90
2018-06-17T22:05:08.103Z,5.87
2018-06-17T22:07:40.677Z,6.60
2018-06-17T22:10:14.430Z,5.20
2018-06-17T22:12:48.216Z,5.80
2018-06-17T22:15:21.998Z,5.17
2018-06-17T22:17:51.956Z,6.27
2018-06-17T22:20:20.555Z,6.00
2018-06-17T22:22:48.931Z,5.50
2018-06-17T22:25:17.723Z,4.93
2018-06-17T22:27:46.102Z,6.10
2018-06-17T22:30:14.498Z,6.10
2018-06-17T22:32:42.917Z,6.10
2018-06-17T22:35:11.320Z,5.17
2018-06-17T22:37:39.695Z,5.50
2018-06-17T22:40:08.119Z,5.10
2018-06-17T22:42:36.649Z,4.93
2018-06-17T22:45:05.303Z,5.43
2018-06-17T22:47:39.078Z,6.33
2018-06-17T22:50:07.973Z,5.10
2018-06-17T22:52:47.787Z,5.70
2018-06-17T22:55:16.174Z,5.80
2018-06-17T22:58:50.859Z,5.57
2018-06-17T23:01:24.713Z,5.90
2018-06-17T23:03:58.338Z,5.70
2018-06-17T23:06:32.200Z,5.60
2018-06-17T23:09:06.024Z,6.20
2018-06-17T23:11:34.735Z,6.23
2018-06-17T23:14:03.134Z,5.83
2018-06-17T23:16:31.532Z,5.47
2018-06-17T23:18:59.900Z,5.93
2018-06-17T23:21:28.288Z,5.20
2018-06-17T23:23:56.658Z,5.53
2018-06-17T23:26:25.054Z,5.63
2018-06-17T23:28:53.435Z,5.50
2018-06-17T23:31:21.843Z,5.10
2018-06-17T23:33:50.218Z,4.40
2018-06-17T23:36:18.605Z,5.50
2018-06-17T23:38:46.970Z,4.77
2018-06-17T23:41:16.573Z,5.53
2018-06-17T23:43:46.516Z,6.33
2018-06-17T23:46:20.406Z,4.93
2018-06-17T23:48:54.174Z,5.30
2018-06-17T23:51:28.015Z,5.57
2018-06-17T23:54:01.716Z,5.00
2018-06-17T23:56:30.135Z,5.10
2018-06-17T23:58:58.506Z,5.37
